Terminal Aerodrome Forecast
Issued by NWS

Home | Current Version | Previous Version | Text Only | Print | Product List | Glossary On
Versions: 1 2 3 4 5 6 7 8 9 10 11 12 13 14 15 16 17 18
000
FTUS43 KAPX 190500
TAFPLN
TAF
KPLN 190521Z 1906/2006 VRB03KT P6SM SCT035
     FM190900 15003KT P6SM BKN025
     FM191500 17008KT P6SM SCT040 BKN200
     FM192200 18007KT P6SM BKN035 OVC070
     FM200300 21009KT 6SM -SHRA OVC030=

USA.gov is the U.S. government's official web portal to all federal, state and local government web resources and services.